createdAt,value
2019-05-18T00:01:16.185Z,31.70
2019-05-18T00:03:44.973Z,27.90
2019-05-18T00:06:13.667Z,31.85
2019-05-18T00:08:42.364Z,32.53
2019-05-18T00:11:11.041Z,32.20
2019-05-18T00:13:39.703Z,31.17
2019-05-18T00:16:08.535Z,31.42
2019-05-18T00:18:37.295Z,32.78
2019-05-18T00:21:05.985Z,31.12
2019-05-18T00:23:34.665Z,31.33
2019-05-18T00:26:03.502Z,30.57
2019-05-18T00:28:32.184Z,33.80
2019-05-18T00:31:00.897Z,35.78
2019-05-18T00:33:29.602Z,34.92
2019-05-18T00:35:58.286Z,36.03
2019-05-18T00:38:26.985Z,36.98
2019-05-18T00:40:55.674Z,32.75
2019-05-18T00:43:24.374Z,35.80
2019-05-18T00:45:53.073Z,34.40
2019-05-18T00:48:21.745Z,34.65
2019-05-18T00:50:50.443Z,35.15
2019-05-18T00:53:19.100Z,35.03
2019-05-18T00:55:47.815Z,34.40
2019-05-18T00:58:16.485Z,34.35
2019-05-18T01:00:45.159Z,34.20
2019-05-18T01:03:13.939Z,34.83
2019-05-18T01:05:42.622Z,34.73
2019-05-18T01:08:11.287Z,33.35
2019-05-18T01:10:39.980Z,35.50
2019-05-18T01:13:08.646Z,35.20
2019-05-18T01:15:37.320Z,33.90
2019-05-18T01:18:06.989Z,32.93
2019-05-18T01:20:37.930Z,36.70
2019-05-18T01:23:11.802Z,38.95
2019-05-18T01:25:40.582Z,37.53
2019-05-18T01:28:09.316Z,38.15
2019-05-18T01:30:38.096Z,36.13
2019-05-18T01:33:06.835Z,36.53
2019-05-18T01:35:35.499Z,34.80
2019-05-18T01:38:04.333Z,37.28
2019-05-18T01:40:33.002Z,34.00
2019-05-18T01:43:01.693Z,40.10
2019-05-18T01:45:30.361Z,35.35
2019-05-18T01:48:12.629Z,32.42
2019-05-18T01:50:29.437Z,37.78
2019-05-18T01:52:58.248Z,43.05
2019-05-18T01:55:26.913Z,39.50
2019-05-18T01:57:55.574Z,40.08
2019-05-18T02:00:24.610Z,39.00
2019-05-18T02:02:53.280Z,40.73
2019-05-18T02:05:21.972Z,41.83
2019-05-18T02:07:50.830Z,37.50
2019-05-18T02:10:19.702Z,38.83
2019-05-18T02:12:48.359Z,41.75
2019-05-18T02:15:17.295Z,40.10
2019-05-18T02:17:45.955Z,38.88
2019-05-18T02:20:14.980Z,43.17
2019-05-18T02:22:43.650Z,42.30
2019-05-18T02:25:12.688Z,40.78
2019-05-18T02:27:41.374Z,37.20
2019-05-18T02:30:11.204Z,35.65
2019-05-18T02:32:39.892Z,37.58
2019-05-18T02:35:09.404Z,37.80
2019-05-18T02:37:38.099Z,35.68
2019-05-18T02:40:07.139Z,38.17
2019-05-18T02:42:35.867Z,37.33
2019-05-18T02:45:04.846Z,41.25
2019-05-18T02:47:33.668Z,37.25
2019-05-18T02:50:02.357Z,38.33
2019-05-18T02:52:31.037Z,37.53
2019-05-18T02:54:59.719Z,40.38
2019-05-18T02:57:28.895Z,41.15
2019-05-18T02:59:57.645Z,38.48
2019-05-18T03:02:26.351Z,40.03
2019-05-18T03:04:55.529Z,38.90
2019-05-18T03:07:24.201Z,38.10
2019-05-18T03:09:52.964Z,41.58
2019-05-18T03:12:21.663Z,38.85
2019-05-18T03:14:50.501Z,44.15
2019-05-18T03:17:19.191Z,43.50
2019-05-18T03:19:47.961Z,42.17
2019-05-18T03:22:16.630Z,47.03
2019-05-18T03:24:45.326Z,47.35
2019-05-18T03:27:14.007Z,47.13
2019-05-18T03:29:42.707Z,45.40
2019-05-18T03:32:11.667Z,44.23
2019-05-18T03:34:40.339Z,77.55
2019-05-18T03:37:09.027Z,50.10
2019-05-18T03:39:37.711Z,50.67
2019-05-18T03:42:06.476Z,47.35
2019-05-18T03:44:35.157Z,53.52
2019-05-18T03:47:03.842Z,50.08
2019-05-18T03:49:32.535Z,49.38
2019-05-18T03:52:01.233Z,56.23
2019-05-18T03:54:29.902Z,61.83
2019-05-18T03:56:58.585Z,54.73
2019-05-18T03:59:27.297Z,78.47
2019-05-18T04:01:55.964Z,70.47
2019-05-18T04:04:24.674Z,67.90
2019-05-18T04:06:53.407Z,65.78
2019-05-18T04:09:22.586Z,58.65
2019-05-18T04:11:51.348Z,58.13
2019-05-18T04:14:20.008Z,79.77
2019-05-18T04:16:48.705Z,69.87
2019-05-18T04:19:17.393Z,52.00
2019-05-18T04:21:46.098Z,49.38
2019-05-18T04:24:14.773Z,58.52
2019-05-18T04:26:43.435Z,49.85
2019-05-18T04:29:12.431Z,45.15
2019-05-18T04:31:41.114Z,46.08
2019-05-18T04:34:09.777Z,63.20
2019-05-18T04:36:38.484Z,52.70
2019-05-18T04:39:07.359Z,53.15
2019-05-18T04:41:36.023Z,65.90
2019-05-18T04:44:04.722Z,45.10
2019-05-18T04:46:33.412Z,42.35
2019-05-18T04:49:02.142Z,52.25
2019-05-18T04:51:30.807Z,43.75
2019-05-18T04:53:59.482Z,40.40
2019-05-18T04:56:28.167Z,41.08
2019-05-18T04:58:56.829Z,39.70
2019-05-18T05:01:25.498Z,36.10
2019-05-18T05:03:54.190Z,32.75
2019-05-18T05:06:23.134Z,32.73
2019-05-18T05:08:51.825Z,32.65
2019-05-18T05:11:20.489Z,34.30
2019-05-18T05:13:49.151Z,32.53
2019-05-18T05:16:17.828Z,35.83
2019-05-18T05:18:46.489Z,34.67
2019-05-18T05:21:15.178Z,38.83
2019-05-18T05:23:43.841Z,31.50
2019-05-18T05:26:12.528Z,33.18
2019-05-18T05:28:41.210Z,35.23
2019-05-18T05:31:09.884Z,35.75
2019-05-18T05:33:38.587Z,36.73
2019-05-18T05:36:07.642Z,39.63
2019-05-18T05:38:36.301Z,40.05
2019-05-18T05:41:04.993Z,43.02
2019-05-18T05:43:33.738Z,38.30
2019-05-18T05:46:02.428Z,36.08
2019-05-18T05:48:31.091Z,42.30
2019-05-18T05:50:59.788Z,37.88
2019-05-18T05:53:28.449Z,38.78
2019-05-18T05:55:57.145Z,32.95
2019-05-18T05:58:25.845Z,39.48
2019-05-18T06:00:54.542Z,34.00
2019-05-18T06:03:23.237Z,35.23
2019-05-18T06:05:51.898Z,32.20
2019-05-18T06:08:20.574Z,28.65
2019-05-18T06:10:49.262Z,32.90
2019-05-18T06:13:17.928Z,28.50
2019-05-18T06:15:46.608Z,26.70
2019-05-18T06:18:15.265Z,30.90
2019-05-18T06:20:51.611Z,26.90
2019-05-18T06:23:14.329Z,30.62
2019-05-18T06:25:43.006Z,28.20
2019-05-18T06:28:11.666Z,29.90
2019-05-18T06:30:40.373Z,28.00
2019-05-18T06:33:09.051Z,27.20
2019-05-18T06:35:37.708Z,27.07
2019-05-18T06:38:06.398Z,25.85
2019-05-18T06:40:35.087Z,25.97
2019-05-18T06:43:03.771Z,24.72
2019-05-18T06:45:32.430Z,25.30
2019-05-18T06:48:01.120Z,24.90
2019-05-18T06:50:30.659Z,24.37
2019-05-18T06:52:59.585Z,25.45
2019-05-18T06:55:28.423Z,24.63
2019-05-18T06:57:58.443Z,23.27
2019-05-18T07:00:27.593Z,23.80
2019-05-18T07:02:56.257Z,24.72
2019-05-18T07:05:24.934Z,24.07
2019-05-18T07:07:53.615Z,22.50
2019-05-18T07:10:22.283Z,22.02
2019-05-18T07:12:50.993Z,19.05
2019-05-18T07:15:20.302Z,18.73
2019-05-18T07:17:48.956Z,17.77
2019-05-18T07:20:18.408Z,17.37
2019-05-18T07:22:47.185Z,18.73
2019-05-18T07:25:17.004Z,18.60
2019-05-18T07:27:45.687Z,17.07
2019-05-18T07:30:15.202Z,19.32
2019-05-18T07:32:43.899Z,17.82
2019-05-18T07:35:12.956Z,16.10
2019-05-18T07:37:41.623Z,16.25
2019-05-18T07:40:11.458Z,15.48
2019-05-18T07:42:40.164Z,15.78
2019-05-18T07:45:09.369Z,14.75
2019-05-18T07:47:38.034Z,13.85
2019-05-18T07:50:07.375Z,13.90
2019-05-18T07:52:36.135Z,12.18
2019-05-18T07:55:05.025Z,14.05
2019-05-18T07:57:33.714Z,13.72
2019-05-18T08:00:02.391Z,13.72
2019-05-18T08:02:31.058Z,12.53
2019-05-18T08:04:59.742Z,13.35
2019-05-18T08:07:28.410Z,12.13
2019-05-18T08:09:57.114Z,9.33
2019-05-18T08:12:25.809Z,10.50
2019-05-18T08:14:54.544Z,10.60
2019-05-18T08:17:23.321Z,10.38
2019-05-18T08:19:51.989Z,11.78
2019-05-18T08:22:20.663Z,11.38
2019-05-18T08:24:49.357Z,8.73
2019-05-18T08:27:18.011Z,8.45
2019-05-18T08:29:46.718Z,8.63
2019-05-18T08:32:15.486Z,7.35
2019-05-18T08:34:44.156Z,6.95
2019-05-18T08:37:12.845Z,7.83
2019-05-18T08:39:41.499Z,8.63
2019-05-18T08:42:10.171Z,8.28
2019-05-18T08:44:38.844Z,8.08
2019-05-18T08:47:07.523Z,6.97
2019-05-18T08:49:36.179Z,7.35
2019-05-18T08:52:08.486Z,7.97
2019-05-18T08:54:35.316Z,6.33
2019-05-18T08:57:04.055Z,5.47
2019-05-18T08:59:32.735Z,5.87
2019-05-18T09:02:01.382Z,5.47
2019-05-18T09:04:30.538Z,4.92
2019-05-18T09:06:59.212Z,4.75
2019-05-18T09:09:27.874Z,5.08
2019-05-18T09:11:56.547Z,4.83
2019-05-18T09:14:25.232Z,4.83
2019-05-18T09:16:53.916Z,4.62
2019-05-18T09:19:22.568Z,5.40
2019-05-18T09:21:51.228Z,5.03
2019-05-18T09:24:19.917Z,5.15
2019-05-18T09:26:48.566Z,4.92
2019-05-18T09:29:17.241Z,4.05
2019-05-18T09:31:45.900Z,3.90
2019-05-18T09:34:14.583Z,4.10
2019-05-18T09:36:43.252Z,4.05
2019-05-18T09:39:11.930Z,3.87
2019-05-18T09:41:40.585Z,4.12
2019-05-18T09:44:09.282Z,4.62
2019-05-18T09:46:37.940Z,3.83
2019-05-18T09:49:06.591Z,4.60
2019-05-18T09:51:35.266Z,3.98
2019-05-18T09:54:04.061Z,3.85
2019-05-18T09:56:32.743Z,4.80
2019-05-18T09:59:01.497Z,4.45
2019-05-18T10:01:30.257Z,4.05
2019-05-18T10:03:58.922Z,3.85
2019-05-18T10:06:27.573Z,4.42
2019-05-18T10:08:56.246Z,5.03
2019-05-18T10:11:25.024Z,4.58
2019-05-18T10:13:53.697Z,4.85
2019-05-18T10:16:22.351Z,4.45
2019-05-18T10:18:51.019Z,4.53
2019-05-18T10:21:19.704Z,4.53
2019-05-18T10:23:48.367Z,4.60
2019-05-18T10:26:17.042Z,4.53
2019-05-18T10:28:45.730Z,4.97
2019-05-18T10:31:14.486Z,5.15
2019-05-18T10:33:43.155Z,5.58
2019-05-18T10:36:11.968Z,5.55
2019-05-18T10:38:40.705Z,5.37
2019-05-18T10:41:09.352Z,5.40
2019-05-18T10:43:38.112Z,5.25
2019-05-18T10:46:06.856Z,4.58
2019-05-18T10:48:35.509Z,5.30
2019-05-18T10:51:05.707Z,4.97
2019-05-18T10:53:34.535Z,4.87
2019-05-18T10:56:03.207Z,4.90
2019-05-18T10:58:31.866Z,4.53
2019-05-18T11:01:00.517Z,4.55
2019-05-18T11:03:29.187Z,4.72
2019-05-18T11:05:57.839Z,4.55
2019-05-18T11:08:26.517Z,5.03
2019-05-18T11:10:55.200Z,4.10
2019-05-18T11:13:23.852Z,5.37
2019-05-18T11:15:52.502Z,4.58
2019-05-18T11:18:21.176Z,5.03
2019-05-18T11:20:49.833Z,4.47
2019-05-18T11:23:18.517Z,4.87
2019-05-18T11:25:47.192Z,4.97
2019-05-18T11:28:15.852Z,5.35
2019-05-18T11:30:44.541Z,4.87
2019-05-18T11:33:13.342Z,4.62
2019-05-18T11:35:42.069Z,5.67
2019-05-18T11:38:10.718Z,4.85
2019-05-18T11:40:39.394Z,4.92
2019-05-18T11:43:08.064Z,5.00
2019-05-18T11:45:36.759Z,5.65
2019-05-18T11:48:05.506Z,4.90
2019-05-18T11:50:34.221Z,4.78
2019-05-18T11:53:02.916Z,4.80
2019-05-18T11:55:31.565Z,5.70
2019-05-18T11:58:00.234Z,4.17
2019-05-18T12:00:29.438Z,5.37
2019-05-18T12:02:58.121Z,5.22
2019-05-18T12:05:26.811Z,4.70
2019-05-18T12:07:55.472Z,4.60
2019-05-18T12:10:24.220Z,4.22
2019-05-18T12:12:52.925Z,4.75
2019-05-18T12:15:22.026Z,5.42
2019-05-18T12:17:50.758Z,5.37
2019-05-18T12:20:20.881Z,4.67
2019-05-18T12:22:49.533Z,4.42
2019-05-18T12:25:18.360Z,4.80
2019-05-18T12:27:47.053Z,3.60
2019-05-18T12:30:17.444Z,3.92
2019-05-18T12:32:46.119Z,4.92
2019-05-18T12:35:14.921Z,4.97
2019-05-18T12:37:43.616Z,4.67
2019-05-18T12:40:15.857Z,4.30
2019-05-18T12:42:44.508Z,4.58
2019-05-18T12:45:13.926Z,4.53
2019-05-18T12:47:42.580Z,4.37
2019-05-18T12:50:11.618Z,4.10
2019-05-18T12:52:40.424Z,4.10
2019-05-18T12:55:09.935Z,4.90
2019-05-18T12:57:38.629Z,4.67
2019-05-18T13:00:07.733Z,4.20
2019-05-18T13:02:36.391Z,4.47
2019-05-18T13:05:05.672Z,3.90
2019-05-18T13:07:34.427Z,3.52
2019-05-18T13:10:03.165Z,3.70
2019-05-18T13:12:31.828Z,4.10
2019-05-18T13:15:00.473Z,4.30
2019-05-18T13:17:29.147Z,4.30
2019-05-18T13:19:57.832Z,3.95
2019-05-18T13:22:26.493Z,4.28
2019-05-18T13:24:55.138Z,4.62
2019-05-18T13:27:38.434Z,4.25
2019-05-18T13:29:54.198Z,3.70
2019-05-18T13:32:22.851Z,4.00
2019-05-18T13:34:51.531Z,3.92
2019-05-18T13:37:20.194Z,3.65
2019-05-18T13:39:48.874Z,3.47
2019-05-18T13:42:17.531Z,3.40
2019-05-18T13:44:46.199Z,3.52
2019-05-18T13:47:14.859Z,3.87
2019-05-18T13:49:43.544Z,3.50
2019-05-18T13:52:12.214Z,3.60
2019-05-18T13:54:40.881Z,4.05
2019-05-18T13:57:09.552Z,3.35
2019-05-18T13:59:38.243Z,3.95
2019-05-18T14:02:07.174Z,3.27
2019-05-18T14:04:35.838Z,4.00
2019-05-18T14:07:04.633Z,3.87
2019-05-18T14:09:33.316Z,3.35
2019-05-18T14:12:01.962Z,3.12
2019-05-18T14:14:30.660Z,3.50
2019-05-18T14:16:59.306Z,3.42
2019-05-18T14:19:27.982Z,3.60
2019-05-18T14:21:56.636Z,4.10
2019-05-18T14:24:25.317Z,4.03
2019-05-18T14:26:53.975Z,4.65
2019-05-18T14:29:22.625Z,4.85
2019-05-18T14:31:51.305Z,4.33
2019-05-18T14:34:19.964Z,4.58
2019-05-18T14:36:48.653Z,4.72
2019-05-18T14:39:17.395Z,4.42
2019-05-18T14:41:46.089Z,5.12
2019-05-18T14:44:14.743Z,4.80
2019-05-18T14:46:43.412Z,4.17
2019-05-18T14:49:12.156Z,4.17
2019-05-18T14:51:40.819Z,4.12
2019-05-18T14:54:09.575Z,3.70
2019-05-18T14:56:38.237Z,3.30
2019-05-18T14:59:06.919Z,3.90
2019-05-18T15:01:35.601Z,3.30
2019-05-18T15:04:04.259Z,3.77
2019-05-18T15:06:32.927Z,3.30
2019-05-18T15:09:01.605Z,3.72
2019-05-18T15:11:30.271Z,3.80
2019-05-18T15:13:58.950Z,3.40
2019-05-18T15:16:27.598Z,3.77
2019-05-18T15:18:56.252Z,3.65
2019-05-18T15:21:25.771Z,3.55
2019-05-18T15:23:54.438Z,3.50
2019-05-18T15:26:23.091Z,3.25
2019-05-18T15:28:51.765Z,3.95
2019-05-18T15:31:23.712Z,3.80
2019-05-18T15:33:50.847Z,4.10
2019-05-18T15:36:19.526Z,3.70
2019-05-18T15:38:48.214Z,3.12
2019-05-18T15:41:17.668Z,3.58
2019-05-18T15:43:46.351Z,3.27
2019-05-18T15:46:14.993Z,3.40
2019-05-18T15:48:43.713Z,3.67
2019-05-18T15:51:12.355Z,3.90
2019-05-18T15:53:41.009Z,3.02
2019-05-18T15:56:09.702Z,3.62
2019-05-18T15:58:38.461Z,3.10
2019-05-18T16:01:07.270Z,3.60
2019-05-18T16:03:35.924Z,3.45
2019-05-18T16:06:06.067Z,3.60
2019-05-18T16:08:34.796Z,4.42
2019-05-18T16:11:03.486Z,4.35
2019-05-18T16:13:32.144Z,8.80
2019-05-18T16:16:00.927Z,4.75
2019-05-18T16:18:29.556Z,3.40
2019-05-18T16:20:58.216Z,3.27
2019-05-18T16:23:26.875Z,4.30
2019-05-18T16:25:55.558Z,3.33
2019-05-18T16:28:24.216Z,3.47
2019-05-18T16:30:52.938Z,3.52
2019-05-18T16:33:21.611Z,3.25
2019-05-18T16:35:50.272Z,3.83
2019-05-18T16:38:18.962Z,3.47
2019-05-18T16:40:47.621Z,3.47
2019-05-18T16:43:16.291Z,3.65
2019-05-18T16:45:44.949Z,4.33
2019-05-18T16:48:13.628Z,4.37
2019-05-18T16:50:42.292Z,4.15
2019-05-18T16:53:10.971Z,3.62
2019-05-18T16:55:39.715Z,4.30
2019-05-18T16:58:08.397Z,3.72
2019-05-18T17:00:37.074Z,3.77
2019-05-18T17:03:05.769Z,3.92
2019-05-18T17:05:34.455Z,4.10
2019-05-18T17:08:03.126Z,4.12
2019-05-18T17:10:31.775Z,3.90
2019-05-18T17:13:00.459Z,3.85
2019-05-18T17:15:29.142Z,4.40
2019-05-18T17:17:57.776Z,3.80
2019-05-18T17:20:26.460Z,4.47
2019-05-18T17:22:55.150Z,3.65
2019-05-18T17:25:23.858Z,4.20
2019-05-18T17:27:52.522Z,4.37
2019-05-18T17:30:21.722Z,3.95
2019-05-18T17:32:50.403Z,4.28
2019-05-18T17:35:19.062Z,4.53
2019-05-18T17:37:47.720Z,4.42
2019-05-18T17:40:16.678Z,4.35
2019-05-18T17:42:45.340Z,4.53
2019-05-18T17:45:14.163Z,4.20
2019-05-18T17:47:42.844Z,4.45
2019-05-18T17:50:12.242Z,4.72
2019-05-18T17:52:40.904Z,4.55
2019-05-18T17:55:09.734Z,4.87
2019-05-18T17:57:38.459Z,4.42
2019-05-18T18:00:07.540Z,5.03
2019-05-18T18:02:36.192Z,5.70
2019-05-18T18:05:05.171Z,5.25
2019-05-18T18:07:33.844Z,4.58
2019-05-18T18:10:02.604Z,4.80
2019-05-18T18:12:31.245Z,5.45
2019-05-18T18:14:59.909Z,5.40
2019-05-18T18:17:28.578Z,5.80
2019-05-18T18:19:57.231Z,5.25
2019-05-18T18:22:25.889Z,6.67
2019-05-18T18:24:54.556Z,6.83
2019-05-18T18:27:25.861Z,6.40
2019-05-18T18:29:53.827Z,5.90
2019-05-18T18:32:22.495Z,5.87
2019-05-18T18:34:51.188Z,5.35
2019-05-18T18:37:19.853Z,4.90
2019-05-18T18:39:48.514Z,5.05
2019-05-18T18:42:17.223Z,5.17
2019-05-18T18:44:45.872Z,5.05
2019-05-18T18:47:14.640Z,5.28
2019-05-18T18:49:43.288Z,5.55
2019-05-18T18:52:12.011Z,5.97
2019-05-18T18:54:40.688Z,5.62
2019-05-18T18:57:09.338Z,6.55
2019-05-18T18:59:37.987Z,5.55
2019-05-18T19:02:06.749Z,6.25
2019-05-18T19:04:35.401Z,6.72
2019-05-18T19:07:04.121Z,6.70
2019-05-18T19:09:32.803Z,6.10
2019-05-18T19:12:01.463Z,6.17
2019-05-18T19:14:30.683Z,6.05
2019-05-18T19:16:59.365Z,6.12
2019-05-18T19:19:28.017Z,6.85
2019-05-18T19:21:56.692Z,7.22
2019-05-18T19:24:25.385Z,6.83
2019-05-18T19:26:54.060Z,6.33
2019-05-18T19:29:22.690Z,6.60
2019-05-18T19:31:51.364Z,6.90
2019-05-18T19:34:20.023Z,6.72
2019-05-18T19:36:48.717Z,8.25
2019-05-18T19:39:17.377Z,6.90
2019-05-18T19:41:46.046Z,6.58
2019-05-18T19:44:14.722Z,6.97
2019-05-18T19:46:43.408Z,6.75
2019-05-18T19:49:12.072Z,7.58
2019-05-18T19:51:40.759Z,7.53
2019-05-18T19:54:09.521Z,7.90
2019-05-18T19:56:41.172Z,8.40
2019-05-18T19:59:08.590Z,8.05
2019-05-18T20:01:37.284Z,7.87
2019-05-18T20:04:06.218Z,8.10
2019-05-18T20:06:34.869Z,9.38
2019-05-18T20:09:04.662Z,8.83
2019-05-18T20:11:33.325Z,10.60
2019-05-18T20:14:02.086Z,8.88
2019-05-18T20:16:30.822Z,9.33
2019-05-18T20:18:59.457Z,8.30
2019-05-18T20:21:28.237Z,9.63
2019-05-18T20:23:56.885Z,9.15
2019-05-18T20:26:25.558Z,9.65
2019-05-18T20:28:56.627Z,9.48
2019-05-18T20:31:24.602Z,10.05
2019-05-18T20:33:53.297Z,10.50
2019-05-18T20:36:21.960Z,9.98
2019-05-18T20:38:50.635Z,10.08
2019-05-18T20:41:19.338Z,10.82
2019-05-18T20:43:48.007Z,10.60
2019-05-18T20:46:16.685Z,11.68
2019-05-18T20:48:45.342Z,11.15
2019-05-18T20:51:14.017Z,11.28
2019-05-18T20:53:42.672Z,11.00
2019-05-18T20:56:11.363Z,11.78
2019-05-18T20:58:40.899Z,11.93
2019-05-18T21:01:09.857Z,11.35
2019-05-18T21:03:38.530Z,11.97
2019-05-18T21:06:07.458Z,12.65
2019-05-18T21:08:36.160Z,11.83
2019-05-18T21:11:04.891Z,12.07
2019-05-18T21:13:33.549Z,13.72
2019-05-18T21:16:02.229Z,12.60
2019-05-18T21:18:30.914Z,13.90
2019-05-18T21:20:59.577Z,12.23
2019-05-18T21:23:28.582Z,12.45
2019-05-18T21:25:57.284Z,12.73
2019-05-18T21:28:26.138Z,13.30
2019-05-18T21:30:54.817Z,13.10
2019-05-18T21:33:23.484Z,13.38
2019-05-18T21:35:52.150Z,14.23
2019-05-18T21:38:20.836Z,17.00
2019-05-18T21:40:49.515Z,15.98
2019-05-18T21:43:18.197Z,16.42
2019-05-18T21:45:46.894Z,17.17
2019-05-18T21:48:15.589Z,17.52
2019-05-18T21:50:44.234Z,17.82
2019-05-18T21:53:12.925Z,16.32
2019-05-18T21:55:41.664Z,15.75
2019-05-18T21:58:12.273Z,16.30
2019-05-18T22:00:40.993Z,15.38
2019-05-18T22:03:09.681Z,14.38
2019-05-18T22:05:38.382Z,14.35
2019-05-18T22:08:07.050Z,14.15
2019-05-18T22:10:35.734Z,16.10
2019-05-18T22:13:04.476Z,16.42
2019-05-18T22:15:33.164Z,14.73
2019-05-18T22:18:04.907Z,14.28
2019-05-18T22:20:35.332Z,16.12
2019-05-18T22:23:04.683Z,17.48
2019-05-18T22:25:33.648Z,18.07
2019-05-18T22:28:02.419Z,17.62
2019-05-18T22:30:31.190Z,16.05
2019-05-18T22:32:59.848Z,13.58
2019-05-18T22:35:28.513Z,13.55
2019-05-18T22:37:57.202Z,15.53
2019-05-18T22:40:25.901Z,18.90
2019-05-18T22:42:54.574Z,18.00
2019-05-18T22:45:23.259Z,18.77
2019-05-18T22:47:51.965Z,18.17
2019-05-18T22:50:20.979Z,20.35
2019-05-18T22:52:49.665Z,21.00
2019-05-18T22:55:18.501Z,19.37
2019-05-18T22:57:47.206Z,17.82
2019-05-18T23:00:16.115Z,17.32
2019-05-18T23:02:44.795Z,19.32
2019-05-18T23:05:13.526Z,20.77
2019-05-18T23:07:42.214Z,19.23
2019-05-18T23:10:11.358Z,17.07
2019-05-18T23:12:40.037Z,21.37
2019-05-18T23:15:08.949Z,19.57
2019-05-18T23:17:37.636Z,16.87
2019-05-18T23:20:07.410Z,18.12
2019-05-18T23:22:36.104Z,16.27
2019-05-18T23:25:05.301Z,16.30
2019-05-18T23:27:34.003Z,15.23
2019-05-18T23:30:02.741Z,14.87
2019-05-18T23:32:31.432Z,16.30
2019-05-18T23:35:00.086Z,14.43
2019-05-18T23:37:28.796Z,17.15
2019-05-18T23:39:57.450Z,19.00
2019-05-18T23:42:26.135Z,19.55
2019-05-18T23:44:54.822Z,19.67
2019-05-18T23:47:23.566Z,20.05
2019-05-18T23:49:52.256Z,20.65
2019-05-18T23:52:20.947Z,21.30
2019-05-18T23:54:49.625Z,21.20
2019-05-18T23:57:18.292Z,18.17
2019-05-18T23:59:46.975Z,16.10
